sensor_id;sensor_type;location;lat;lon;timestamp;pressure;altitude;pressure_sealevel;temperature;humidity
36726;BME280;44936;52.086;5.150;2022-10-16T00:01:20;98138.34;;;12.61;100.00
36726;BME280;44936;52.086;5.150;2022-10-16T00:03:46;98124.09;;;12.47;100.00
36726;BME280;44936;52.086;5.150;2022-10-16T00:06:17;98130.97;;;12.50;100.00
36726;BME280;44936;52.086;5.150;2022-10-16T00:08:43;98182.34;;;12.57;100.00
36726;BME280;44936;52.086;5.150;2022-10-16T00:11:12;98210.63;;;12.52;100.00
36726;BME280;44936;52.086;5.150;2022-10-16T00:13:39;98235.06;;;12.54;100.00
36726;BME280;44936;52.086;5.150;2022-10-16T00:16:06;98203.53;;;12.35;100.00
36726;BME280;44936;52.086;5.150;2022-10-16T00:18:32;98251.72;;;12.55;100.00
36726;BME280;44936;52.086;5.150;2022-10-16T00:21:03;98269.06;;;12.59;100.00
36726;BME280;44936;52.086;5.150;2022-10-16T00:23:29;98248.28;;;12.53;100.00
36726;BME280;44936;52.086;5.150;2022-10-16T00:25:56;98231.75;;;12.51;100.00
36726;BME280;44936;52.086;5.150;2022-10-16T00:28:22;98261.09;;;12.60;100.00
36726;BME280;44936;52.086;5.150;2022-10-16T00:30:47;98216.75;;;12.34;100.00
36726;BME280;44936;52.086;5.150;2022-10-16T00:33:13;98238.94;;;12.47;100.00
36726;BME280;44936;52.086;5.150;2022-10-16T00:35:38;98283.72;;;12.64;100.00
36726;BME280;44936;52.086;5.150;2022-10-16T00:38:04;98250.84;;;12.54;100.00
36726;BME280;44936;52.086;5.150;2022-10-16T00:40:29;98254.19;;;12.58;100.00
36726;BME280;44936;52.086;5.150;2022-10-16T00:42:54;98261.84;;;12.62;100.00
36726;BME280;44936;52.086;5.150;2022-10-16T00:45:20;98260.88;;;12.65;100.00
36726;BME280;44936;52.086;5.150;2022-10-16T00:47:47;98233.00;;;12.61;100.00
36726;BME280;44936;52.086;5.150;2022-10-16T00:52:47;98235.28;;;12.68;100.00
36726;BME280;44936;52.086;5.150;2022-10-16T00:55:14;98214.25;;;12.68;100.00
36726;BME280;44936;52.086;5.150;2022-10-16T00:57:40;98190.28;;;12.74;100.00
36726;BME280;44936;52.086;5.150;2022-10-16T01:00:10;98205.47;;;12.87;100.00
36726;BME280;44936;52.086;5.150;2022-10-16T01:02:36;98225.09;;;12.80;100.00
36726;BME280;44936;52.086;5.150;2022-10-16T01:05:02;98240.88;;;12.80;100.00
36726;BME280;44936;52.086;5.150;2022-10-16T01:07:53;98267.88;;;13.02;100.00
36726;BME280;44936;52.086;5.150;2022-10-16T01:13:19;98278.13;;;13.08;100.00
36726;BME280;44936;52.086;5.150;2022-10-16T01:15:51;98245.59;;;12.92;100.00
36726;BME280;44936;52.086;5.150;2022-10-16T01:18:34;98252.47;;;12.94;100.00
36726;BME280;44936;52.086;5.150;2022-10-16T01:21:22;98248.34;;;12.89;100.00
36726;BME280;44936;52.086;5.150;2022-10-16T01:24:17;98250.53;;;12.98;100.00
36726;BME280;44936;52.086;5.150;2022-10-16T01:26:50;98283.41;;;13.08;100.00
36726;BME280;44936;52.086;5.150;2022-10-16T01:29:36;98282.38;;;13.11;100.00
36726;BME280;44936;52.086;5.150;2022-10-16T01:32:15;98263.81;;;13.14;100.00
36726;BME280;44936;52.086;5.150;2022-10-16T01:34:47;98228.09;;;12.91;100.00
36726;BME280;44936;52.086;5.150;2022-10-16T01:37:18;98231.97;;;13.01;100.00
36726;BME280;44936;52.086;5.150;2022-10-16T01:39:46;98238.25;;;13.16;100.00
36726;BME280;44936;52.086;5.150;2022-10-16T01:42:19;98202.44;;;13.13;100.00
36726;BME280;44936;52.086;5.150;2022-10-16T01:44:47;98192.75;;;13.14;100.00
36726;BME280;44936;52.086;5.150;2022-10-16T01:47:14;98188.59;;;13.10;100.00
36726;BME280;44936;52.086;5.150;2022-10-16T01:49:41;98185.56;;;13.00;100.00
36726;BME280;44936;52.086;5.150;2022-10-16T01:52:12;98154.72;;;12.85;100.00
36726;BME280;44936;52.086;5.150;2022-10-16T01:54:42;98132.84;;;12.84;100.00
36726;BME280;44936;52.086;5.150;2022-10-16T01:57:10;98133.69;;;12.85;100.00
36726;BME280;44936;52.086;5.150;2022-10-16T01:59:42;98092.63;;;12.99;100.00
36726;BME280;44936;52.086;5.150;2022-10-16T02:02:10;98034.78;;;12.81;100.00
36726;BME280;44936;52.086;5.150;2022-10-16T02:04:58;98049.34;;;12.88;100.00
36726;BME280;44936;52.086;5.150;2022-10-16T02:07:39;98039.19;;;12.97;100.00
36726;BME280;44936;52.086;5.150;2022-10-16T02:10:08;98003.41;;;12.77;100.00
36726;BME280;44936;52.086;5.150;2022-10-16T02:12:36;98011.66;;;12.70;100.00
36726;BME280;44936;52.086;5.150;2022-10-16T02:15:05;98045.19;;;12.84;100.00
36726;BME280;44936;52.086;5.150;2022-10-16T02:17:32;98051.88;;;12.72;100.00
36726;BME280;44936;52.086;5.150;2022-10-16T02:19:59;98056.00;;;12.60;100.00
36726;BME280;44936;52.086;5.150;2022-10-16T02:22:40;98041.81;;;12.45;100.00
36726;BME280;44936;52.086;5.150;2022-10-16T02:25:22;98057.00;;;12.58;100.00
36726;BME280;44936;52.086;5.150;2022-10-16T02:28:01;98079.56;;;12.62;100.00
36726;BME280;44936;52.086;5.150;2022-10-16T02:30:50;98049.31;;;12.53;100.00
36726;BME280;44936;52.086;5.150;2022-10-16T02:33:17;98064.72;;;12.61;100.00
36726;BME280;44936;52.086;5.150;2022-10-16T02:35:46;98037.19;;;12.51;100.00
36726;BME280;44936;52.086;5.150;2022-10-16T02:38:14;98018.50;;;12.57;100.00
36726;BME280;44936;52.086;5.150;2022-10-16T02:40:40;98003.56;;;12.57;100.00
36726;BME280;44936;52.086;5.150;2022-10-16T02:43:06;97989.50;;;12.58;100.00
36726;BME280;44936;52.086;5.150;2022-10-16T02:45:32;97961.03;;;12.49;100.00
36726;BME280;44936;52.086;5.150;2022-10-16T02:47:57;97974.56;;;12.59;100.00
36726;BME280;44936;52.086;5.150;2022-10-16T02:50:25;97961.13;;;12.47;100.00
36726;BME280;44936;52.086;5.150;2022-10-16T02:52:51;97963.03;;;12.44;100.00
36726;BME280;44936;52.086;5.150;2022-10-16T02:55:17;97972.63;;;12.62;100.00
36726;BME280;44936;52.086;5.150;2022-10-16T02:57:42;98011.28;;;12.77;100.00
36726;BME280;44936;52.086;5.150;2022-10-16T03:00:14;97980.50;;;12.62;100.00
36726;BME280;44936;52.086;5.150;2022-10-16T03:02:40;97997.13;;;12.80;100.00
36726;BME280;44936;52.086;5.150;2022-10-16T03:05:06;97980.88;;;12.72;100.00
36726;BME280;44936;52.086;5.150;2022-10-16T03:07:32;97945.25;;;12.49;100.00
36726;BME280;44936;52.086;5.150;2022-10-16T03:09:57;97969.97;;;12.62;100.00
36726;BME280;44936;52.086;5.150;2022-10-16T03:12:26;98005.19;;;12.77;100.00
36726;BME280;44936;52.086;5.150;2022-10-16T03:14:51;98025.38;;;12.76;100.00
36726;BME280;44936;52.086;5.150;2022-10-16T03:17:17;97997.75;;;12.51;100.00
36726;BME280;44936;52.086;5.150;2022-10-16T03:19:42;98023.19;;;12.67;100.00
36726;BME280;44936;52.086;5.150;2022-10-16T03:22:08;97975.88;;;12.50;100.00
36726;BME280;44936;52.086;5.150;2022-10-16T03:24:39;97945.72;;;12.40;100.00
36726;BME280;44936;52.086;5.150;2022-10-16T03:27:07;98003.19;;;12.65;100.00
36726;BME280;44936;52.086;5.150;2022-10-16T03:29:32;97945.44;;;12.46;100.00
36726;BME280;44936;52.086;5.150;2022-10-16T03:32:01;97997.28;;;12.60;100.00
36726;BME280;44936;52.086;5.150;2022-10-16T03:34:27;97991.34;;;12.56;100.00
36726;BME280;44936;52.086;5.150;2022-10-16T03:36:53;97965.19;;;12.36;100.00
36726;BME280;44936;52.086;5.150;2022-10-16T03:39:19;97966.00;;;12.38;100.00
36726;BME280;44936;52.086;5.150;2022-10-16T03:41:44;97938.31;;;12.31;100.00
36726;BME280;44936;52.086;5.150;2022-10-16T03:44:14;97920.13;;;12.26;100.00
36726;BME280;44936;52.086;5.150;2022-10-16T03:46:40;97911.25;;;12.29;100.00
36726;BME280;44936;52.086;5.150;2022-10-16T03:49:06;97907.16;;;12.23;100.00
36726;BME280;44936;52.086;5.150;2022-10-16T03:51:32;97852.66;;;12.09;100.00
36726;BME280;44936;52.086;5.150;2022-10-16T03:53:57;97840.91;;;12.16;100.00
36726;BME280;44936;52.086;5.150;2022-10-16T03:56:26;97859.00;;;12.40;100.00
36726;BME280;44936;52.086;5.150;2022-10-16T03:58:51;97859.66;;;12.43;100.00
36726;BME280;44936;52.086;5.150;2022-10-16T04:01:17;97847.94;;;12.33;100.00
36726;BME280;44936;52.086;5.150;2022-10-16T04:03:42;97839.97;;;12.35;100.00
36726;BME280;44936;52.086;5.150;2022-10-16T04:06:07;97888.19;;;12.51;100.00
36726;BME280;44936;52.086;5.150;2022-10-16T04:08:33;97845.38;;;12.32;100.00
36726;BME280;44936;52.086;5.150;2022-10-16T04:11:03;97827.31;;;12.26;100.00
36726;BME280;44936;52.086;5.150;2022-10-16T04:13:29;97833.97;;;12.15;100.00
36726;BME280;44936;52.086;5.150;2022-10-16T04:15:54;97848.50;;;12.23;100.00
36726;BME280;44936;52.086;5.150;2022-10-16T04:18:20;97895.78;;;12.40;100.00
36726;BME280;44936;52.086;5.150;2022-10-16T04:20:45;97866.81;;;12.24;100.00
36726;BME280;44936;52.086;5.150;2022-10-16T04:23:11;97861.38;;;12.27;100.00
36726;BME280;44936;52.086;5.150;2022-10-16T04:25:36;97896.72;;;12.39;100.00
36726;BME280;44936;52.086;5.150;2022-10-16T04:28:02;97888.22;;;12.34;100.00
36726;BME280;44936;52.086;5.150;2022-10-16T04:30:28;97863.03;;;12.30;100.00
36726;BME280;44936;52.086;5.150;2022-10-16T04:32:53;97908.00;;;12.41;100.00
36726;BME280;44936;52.086;5.150;2022-10-16T04:35:20;97914.66;;;12.48;100.00
36726;BME280;44936;52.086;5.150;2022-10-16T04:37:46;97910.31;;;12.47;100.00
36726;BME280;44936;52.086;5.150;2022-10-16T04:40:11;97874.84;;;12.38;100.00
36726;BME280;44936;52.086;5.150;2022-10-16T04:42:37;97885.81;;;12.46;100.00
36726;BME280;44936;52.086;5.150;2022-10-16T04:45:04;97923.69;;;12.42;100.00
36726;BME280;44936;52.086;5.150;2022-10-16T04:47:30;97919.53;;;12.38;100.00
36726;BME280;44936;52.086;5.150;2022-10-16T04:49:55;97880.56;;;12.12;100.00
36726;BME280;44936;52.086;5.150;2022-10-16T04:52:22;97921.13;;;12.41;100.00
36726;BME280;44936;52.086;5.150;2022-10-16T04:54:50;97931.44;;;12.28;100.00
36726;BME280;44936;52.086;5.150;2022-10-16T04:57:17;97930.34;;;12.32;100.00
36726;BME280;44936;52.086;5.150;2022-10-16T04:59:42;97945.44;;;12.29;100.00
36726;BME280;44936;52.086;5.150;2022-10-16T05:02:08;97891.16;;;12.10;100.00
36726;BME280;44936;52.086;5.150;2022-10-16T05:04:33;97865.97;;;12.06;100.00
36726;BME280;44936;52.086;5.150;2022-10-16T05:06:58;97848.03;;;11.97;100.00
36726;BME280;44936;52.086;5.150;2022-10-16T05:09:24;97874.78;;;12.05;100.00
36726;BME280;44936;52.086;5.150;2022-10-16T05:11:49;97839.09;;;11.84;100.00
36726;BME280;44936;52.086;5.150;2022-10-16T05:14:15;97858.00;;;12.08;100.00
36726;BME280;44936;52.086;5.150;2022-10-16T05:16:41;97879.09;;;12.24;100.00
36726;BME280;44936;52.086;5.150;2022-10-16T05:19:06;97816.03;;;12.06;100.00
36726;BME280;44936;52.086;5.150;2022-10-16T05:21:32;97824.22;;;12.17;100.00
36726;BME280;44936;52.086;5.150;2022-10-16T05:23:58;97836.19;;;12.23;100.00
36726;BME280;44936;52.086;5.150;2022-10-16T05:26:23;97815.88;;;12.09;100.00
36726;BME280;44936;52.086;5.150;2022-10-16T05:28:49;97854.81;;;12.36;100.00
36726;BME280;44936;52.086;5.150;2022-10-16T05:31:15;97861.78;;;12.37;100.00
36726;BME280;44936;52.086;5.150;2022-10-16T05:33:40;97894.53;;;12.47;100.00
36726;BME280;44936;52.086;5.150;2022-10-16T05:36:07;97890.84;;;12.34;100.00
36726;BME280;44936;52.086;5.150;2022-10-16T05:38:35;97915.25;;;12.36;100.00
36726;BME280;44936;52.086;5.150;2022-10-16T05:41:01;97941.31;;;12.40;100.00
36726;BME280;44936;52.086;5.150;2022-10-16T05:43:28;97935.38;;;12.37;100.00
36726;BME280;44936;52.086;5.150;2022-10-16T05:45:59;97993.81;;;12.59;100.00
36726;BME280;44936;52.086;5.150;2022-10-16T05:48:25;97960.56;;;12.41;100.00
36726;BME280;44936;52.086;5.150;2022-10-16T05:51:02;98008.97;;;12.54;100.00
36726;BME280;44936;52.086;5.150;2022-10-16T05:53:29;98040.75;;;12.67;100.00
36726;BME280;44936;52.086;5.150;2022-10-16T05:55:56;98046.03;;;12.67;100.00
36726;BME280;44936;52.086;5.150;2022-10-16T05:58:22;98081.81;;;12.69;100.00
36726;BME280;44936;52.086;5.150;2022-10-16T06:01:00;98072.94;;;12.72;100.00
36726;BME280;44936;52.086;5.150;2022-10-16T06:03:29;98086.16;;;12.70;100.00
36726;BME280;44936;52.086;5.150;2022-10-16T06:05:54;98068.91;;;12.65;100.00
36726;BME280;44936;52.086;5.150;2022-10-16T06:08:21;98068.56;;;12.54;100.00
36726;BME280;44936;52.086;5.150;2022-10-16T06:10:47;98082.59;;;12.71;100.00
36726;BME280;44936;52.086;5.150;2022-10-16T06:13:14;98084.38;;;12.71;100.00
36726;BME280;44936;52.086;5.150;2022-10-16T06:15:42;98074.56;;;12.74;100.00
36726;BME280;44936;52.086;5.150;2022-10-16T06:18:09;98030.31;;;12.48;100.00
36726;BME280;44936;52.086;5.150;2022-10-16T06:20:35;98027.91;;;12.61;100.00
36726;BME280;44936;52.086;5.150;2022-10-16T06:23:03;97962.81;;;12.48;100.00
36726;BME280;44936;52.086;5.150;2022-10-16T06:25:30;97989.56;;;12.74;100.00
36726;BME280;44936;52.086;5.150;2022-10-16T06:27:55;97949.13;;;12.59;100.00
36726;BME280;44936;52.086;5.150;2022-10-16T06:30:20;97953.69;;;12.56;100.00
36726;BME280;44936;52.086;5.150;2022-10-16T06:32:46;97960.84;;;12.69;100.00
36726;BME280;44936;52.086;5.150;2022-10-16T06:35:11;97925.91;;;12.67;100.00
36726;BME280;44936;52.086;5.150;2022-10-16T06:37:37;97909.22;;;12.51;100.00
36726;BME280;44936;52.086;5.150;2022-10-16T06:40:02;97838.34;;;12.32;100.00
36726;BME280;44936;52.086;5.150;2022-10-16T06:42:29;97870.84;;;12.64;100.00
36726;BME280;44936;52.086;5.150;2022-10-16T06:44:55;97826.66;;;12.55;100.00
36726;BME280;44936;52.086;5.150;2022-10-16T06:47:20;97796.22;;;12.34;100.00
36726;BME280;44936;52.086;5.150;2022-10-16T06:49:45;97830.03;;;12.57;100.00
36726;BME280;44936;52.086;5.150;2022-10-16T06:52:11;97779.59;;;12.33;100.00
36726;BME280;44936;52.086;5.150;2022-10-16T06:54:36;97793.22;;;12.57;100.00
36726;BME280;44936;52.086;5.150;2022-10-16T06:57:03;97778.47;;;12.55;100.00
36726;BME280;44936;52.086;5.150;2022-10-16T06:59:28;97815.97;;;12.58;100.00
36726;BME280;44936;52.086;5.150;2022-10-16T07:01:54;97812.06;;;12.65;100.00
36726;BME280;44936;52.086;5.150;2022-10-16T07:04:20;97826.03;;;12.50;100.00
36726;BME280;44936;52.086;5.150;2022-10-16T07:06:46;97822.19;;;12.40;100.00
36726;BME280;44936;52.086;5.150;2022-10-16T07:09:16;97839.16;;;12.50;100.00
36726;BME280;44936;52.086;5.150;2022-10-16T07:11:44;97847.81;;;12.52;100.00
36726;BME280;44936;52.086;5.150;2022-10-16T07:14:18;97871.34;;;12.55;100.00
36726;BME280;44936;52.086;5.150;2022-10-16T07:16:44;97889.50;;;12.60;100.00
36726;BME280;44936;52.086;5.150;2022-10-16T07:19:10;97949.38;;;12.88;100.00
36726;BME280;44936;52.086;5.150;2022-10-16T07:21:37;97986.06;;;12.91;100.00
36726;BME280;44936;52.086;5.150;2022-10-16T07:24:05;97997.75;;;12.85;100.00
36726;BME280;44936;52.086;5.150;2022-10-16T07:26:36;98024.13;;;12.84;100.00
36726;BME280;44936;52.086;5.150;2022-10-16T07:29:02;98092.66;;;12.98;100.00
36726;BME280;44936;52.086;5.150;2022-10-16T07:31:28;98129.81;;;12.92;100.00
36726;BME280;44936;52.086;5.150;2022-10-16T07:33:54;98109.31;;;12.64;100.00
36726;BME280;44936;52.086;5.150;2022-10-16T07:36:20;98185.16;;;12.90;100.00
36726;BME280;44936;52.086;5.150;2022-10-16T07:38:47;98169.66;;;12.84;100.00
36726;BME280;44936;52.086;5.150;2022-10-16T07:41:15;98160.72;;;12.69;100.00
36726;BME280;44936;52.086;5.150;2022-10-16T07:43:49;98181.91;;;12.66;100.00
36726;BME280;44936;52.086;5.150;2022-10-16T07:46:16;98180.34;;;12.62;100.00
36726;BME280;44936;52.086;5.150;2022-10-16T07:48:45;98175.69;;;12.50;100.00
36726;BME280;44936;52.086;5.150;2022-10-16T07:51:19;98124.63;;;12.54;100.00
36726;BME280;44936;52.086;5.150;2022-10-16T07:53:45;98088.28;;;12.45;100.00
36726;BME280;44936;52.086;5.150;2022-10-16T07:56:21;98113.38;;;12.69;100.00
36726;BME280;44936;52.086;5.150;2022-10-16T07:58:51;98045.94;;;12.51;100.00
36726;BME280;44936;52.086;5.150;2022-10-16T08:01:17;97999.75;;;12.45;100.00
36726;BME280;44936;52.086;5.150;2022-10-16T08:03:49;98013.91;;;12.60;100.00
36726;BME280;44936;52.086;5.150;2022-10-16T08:06:20;97980.50;;;12.62;100.00
36726;BME280;44936;52.086;5.150;2022-10-16T08:08:46;97992.97;;;12.76;100.00
36726;BME280;44936;52.086;5.150;2022-10-16T08:11:13;97992.13;;;12.75;100.00
36726;BME280;44936;52.086;5.150;2022-10-16T08:13:40;97971.84;;;12.60;100.00
36726;BME280;44936;52.086;5.150;2022-10-16T08:16:06;97971.84;;;12.77;100.00
36726;BME280;44936;52.086;5.150;2022-10-16T08:18:58;97934.19;;;12.60;100.00
36726;BME280;44936;52.086;5.150;2022-10-16T08:21:42;97954.34;;;12.76;100.00
36726;BME280;44936;52.086;5.150;2022-10-16T08:24:19;97942.47;;;12.52;100.00
36726;BME280;44936;52.086;5.150;2022-10-16T08:26:56;97934.03;;;12.63;100.00
36726;BME280;44936;52.086;5.150;2022-10-16T08:29:24;97979.56;;;12.81;100.00
36726;BME280;44936;52.086;5.150;2022-10-16T08:31:55;97965.09;;;12.72;100.00
36726;BME280;44936;52.086;5.150;2022-10-16T08:34:21;97963.56;;;12.68;100.00
36726;BME280;44936;52.086;5.150;2022-10-16T08:36:46;97972.41;;;12.67;100.00
36726;BME280;44936;52.086;5.150;2022-10-16T08:39:12;98026.97;;;12.96;100.00
36726;BME280;44936;52.086;5.150;2022-10-16T08:50:25;98081.00;;;12.86;100.00
36726;BME280;44936;52.086;5.150;2022-10-16T08:52:53;98104.19;;;12.95;100.00
36726;BME280;44936;52.086;5.150;2022-10-16T08:55:30;98181.22;;;13.16;100.00
36726;BME280;44936;52.086;5.150;2022-10-16T08:57:58;98165.34;;;13.00;100.00
36726;BME280;44936;52.086;5.150;2022-10-16T09:00:24;98167.59;;;13.08;100.00
36726;BME280;44936;52.086;5.150;2022-10-16T09:03:17;98225.94;;;13.35;100.00
36726;BME280;44936;52.086;5.150;2022-10-16T09:06:35;98236.25;;;13.40;100.00
36726;BME280;44936;52.086;5.150;2022-10-16T09:17:55;98344.91;;;13.43;100.00
36726;BME280;44936;52.086;5.150;2022-10-16T09:22:55;98428.84;;;13.68;100.00
36726;BME280;44936;52.086;5.150;2022-10-16T09:25:25;98487.25;;;13.95;100.00
36726;BME280;44936;52.086;5.150;2022-10-16T09:27:53;98483.38;;;13.66;100.00
36726;BME280;44936;52.086;5.150;2022-10-16T09:30:21;98542.53;;;13.97;100.00
36726;BME280;44936;52.086;5.150;2022-10-16T09:32:52;98532.53;;;14.03;100.00
36726;BME280;44936;52.086;5.150;2022-10-16T09:35:27;98551.66;;;13.89;100.00
36726;BME280;44936;52.086;5.150;2022-10-16T09:37:56;98618.91;;;14.17;100.00
36726;BME280;44936;52.086;5.150;2022-10-16T09:40:33;98632.00;;;14.18;100.00
36726;BME280;44936;52.086;5.150;2022-10-16T09:43:06;98716.72;;;14.50;100.00
36726;BME280;44936;52.086;5.150;2022-10-16T09:45:53;98723.44;;;14.37;100.00
36726;BME280;44936;52.086;5.150;2022-10-16T09:48:21;98752.56;;;14.54;100.00
36726;BME280;44936;52.086;5.150;2022-10-16T09:51:02;98824.53;;;14.58;100.00
36726;BME280;44936;52.086;5.150;2022-10-16T09:53:45;98811.47;;;14.34;100.00
36726;BME280;44936;52.086;5.150;2022-10-16T09:56:20;98904.44;;;14.60;100.00
36726;BME280;44936;52.086;5.150;2022-10-16T09:58:53;98906.94;;;14.42;100.00
36726;BME280;44936;52.086;5.150;2022-10-16T10:01:20;98944.53;;;14.68;100.00
36726;BME280;44936;52.086;5.150;2022-10-16T10:03:47;98924.25;;;14.50;100.00
36726;BME280;44936;52.086;5.150;2022-10-16T10:06:26;98945.19;;;14.73;100.00
36726;BME280;44936;52.086;5.150;2022-10-16T10:09:06;98942.34;;;14.78;100.00
36726;BME280;44936;52.086;5.150;2022-10-16T10:11:41;98934.25;;;15.01;100.00
36726;BME280;44936;52.086;5.150;2022-10-16T10:14:35;98902.44;;;15.04;100.00
36726;BME280;44936;52.086;5.150;2022-10-16T10:19:40;98977.81;;;15.11;100.00
36726;BME280;44936;52.086;5.150;2022-10-16T10:22:39;99014.47;;;15.56;100.00
36726;BME280;44936;52.086;5.150;2022-10-16T10:30:24;99134.09;;;15.60;100.00
36726;BME280;44936;52.086;5.150;2022-10-16T10:35:43;99277.19;;;15.51;100.00
36726;BME280;44936;52.086;5.150;2022-10-16T10:38:20;99263.88;;;15.32;100.00
36726;BME280;44936;52.086;5.150;2022-10-16T10:44:19;99221.34;;;15.18;100.00
36726;BME280;44936;52.086;5.150;2022-10-16T10:46:57;99210.69;;;15.19;100.00
36726;BME280;44936;52.086;5.150;2022-10-16T10:49:44;99192.88;;;15.04;100.00
36726;BME280;44936;52.086;5.150;2022-10-16T10:54:55;99224.34;;;15.30;100.00
36726;BME280;44936;52.086;5.150;2022-10-16T10:57:43;99256.16;;;15.70;100.00
36726;BME280;44936;52.086;5.150;2022-10-16T11:05:40;99293.16;;;15.70;100.00
36726;BME280;44936;52.086;5.150;2022-10-16T11:08:13;99336.91;;;15.77;100.00
36726;BME280;44936;52.086;5.150;2022-10-16T11:10:49;99400.53;;;15.72;100.00
36726;BME280;44936;52.086;5.150;2022-10-16T11:15:58;99389.66;;;15.58;100.00
36726;BME280;44936;52.086;5.150;2022-10-16T11:18:44;99446.72;;;15.64;100.00
36726;BME280;44936;52.086;5.150;2022-10-16T11:21:16;99418.03;;;15.31;100.00
36726;BME280;44936;52.086;5.150;2022-10-16T11:23:58;99434.53;;;15.36;100.00
36726;BME280;44936;52.086;5.150;2022-10-16T11:26:33;99503.09;;;15.64;100.00
36726;BME280;44936;52.086;5.150;2022-10-16T11:29:04;99495.38;;;15.58;100.00
36726;BME280;44936;52.086;5.150;2022-10-16T11:31:43;99518.19;;;15.37;100.00
36726;BME280;44936;52.086;5.150;2022-10-16T11:36:47;99522.25;;;15.46;100.00
36726;BME280;44936;52.086;5.150;2022-10-16T11:41:49;99486.81;;;15.28;100.00
36726;BME280;44936;52.086;5.150;2022-10-16T11:49:45;99542.75;;;15.64;100.00
36726;BME280;44936;52.086;5.150;2022-10-16T11:52:38;99535.63;;;15.66;100.00
36726;BME280;44936;52.086;5.150;2022-10-16T11:55:28;99532.66;;;15.50;100.00
36726;BME280;44936;52.086;5.150;2022-10-16T11:58:30;99584.72;;;15.72;100.00
36726;BME280;44936;52.086;5.150;2022-10-16T12:01:28;99618.81;;;15.79;100.00
36726;BME280;44936;52.086;5.150;2022-10-16T12:07:10;99586.22;;;15.55;100.00
36726;BME280;44936;52.086;5.150;2022-10-16T12:09:40;99625.41;;;15.68;100.00
36726;BME280;44936;52.086;5.150;2022-10-16T12:15:21;99670.94;;;15.76;100.00
36726;BME280;44936;52.086;5.150;2022-10-16T12:17:56;99675.63;;;15.68;100.00
36726;BME280;44936;52.086;5.150;2022-10-16T12:20:32;99659.13;;;15.61;100.00
36726;BME280;44936;52.086;5.150;2022-10-16T12:23:03;99691.94;;;15.54;100.00
36726;BME280;44936;52.086;5.150;2022-10-16T12:25:40;99735.72;;;15.63;100.00
36726;BME280;44936;52.086;5.150;2022-10-16T12:28:27;99720.41;;;15.46;100.00
36726;BME280;44936;52.086;5.150;2022-10-16T12:31:06;99723.31;;;15.40;100.00
36726;BME280;44936;52.086;5.150;2022-10-16T12:34:04;99762.25;;;15.59;100.00
36726;BME280;44936;52.086;5.150;2022-10-16T12:36:37;99762.00;;;15.67;100.00
36726;BME280;44936;52.086;5.150;2022-10-16T12:39:03;99696.63;;;15.46;100.00
36726;BME280;44936;52.086;5.150;2022-10-16T12:41:39;99727.72;;;15.66;100.00
36726;BME280;44936;52.086;5.150;2022-10-16T12:44:24;99695.06;;;15.67;100.00
36726;BME280;44936;52.086;5.150;2022-10-16T12:46:51;99689.53;;;15.48;100.00
36726;BME280;44936;52.086;5.150;2022-10-16T12:49:31;99698.09;;;15.54;100.00
36726;BME280;44936;52.086;5.150;2022-10-16T12:51:59;99709.63;;;15.78;100.00
36726;BME280;44936;52.086;5.150;2022-10-16T12:57:45;99752.81;;;16.02;100.00
36726;BME280;44936;52.086;5.150;2022-10-16T13:00:45;99742.38;;;15.99;100.00
36726;BME280;44936;52.086;5.150;2022-10-16T13:06:17;99767.66;;;16.06;100.00
36726;BME280;44936;52.086;5.150;2022-10-16T13:17:46;99734.72;;;15.92;100.00
36726;BME280;44936;52.086;5.150;2022-10-16T13:20:44;99784.91;;;16.17;100.00
36726;BME280;44936;52.086;5.150;2022-10-16T13:23:25;99791.28;;;16.11;100.00
36726;BME280;44936;52.086;5.150;2022-10-16T13:26:22;99804.31;;;16.17;100.00
36726;BME280;44936;52.086;5.150;2022-10-16T13:29:07;99800.91;;;16.13;100.00
36726;BME280;44936;52.086;5.150;2022-10-16T13:31:39;99812.78;;;16.27;100.00
36726;BME280;44936;52.086;5.150;2022-10-16T13:34:05;99817.88;;;16.31;100.00
36726;BME280;44936;52.086;5.150;2022-10-16T13:36:44;99810.38;;;16.44;100.00
36726;BME280;44936;52.086;5.150;2022-10-16T13:39:27;99801.34;;;16.25;100.00
36726;BME280;44936;52.086;5.150;2022-10-16T13:44:46;99803.13;;;16.26;100.00
36726;BME280;44936;52.086;5.150;2022-10-16T13:47:20;99787.69;;;16.37;100.00
36726;BME280;44936;52.086;5.150;2022-10-16T13:50:09;99800.28;;;16.54;100.00
36726;BME280;44936;52.086;5.150;2022-10-16T13:52:39;99850.84;;;16.71;100.00
36726;BME280;44936;52.086;5.150;2022-10-16T13:57:37;99842.13;;;16.44;100.00
36726;BME280;44936;52.086;5.150;2022-10-16T14:00:03;99878.84;;;16.53;100.00
36726;BME280;44936;52.086;5.150;2022-10-16T14:02:50;99853.56;;;16.45;100.00
36726;BME280;44936;52.086;5.150;2022-10-16T14:05:19;99874.47;;;16.52;100.00
36726;BME280;44936;52.086;5.150;2022-10-16T14:07:49;99882.00;;;16.63;100.00
36726;BME280;44936;52.086;5.150;2022-10-16T14:10:46;99861.47;;;16.46;100.00
36726;BME280;44936;52.086;5.150;2022-10-16T14:13:21;99902.47;;;16.83;100.00
36726;BME280;44936;52.086;5.150;2022-10-16T14:15:51;99871.06;;;16.74;100.00
36726;BME280;44936;52.086;5.150;2022-10-16T14:18:27;99847.09;;;16.53;100.00
36726;BME280;44936;52.086;5.150;2022-10-16T14:20:53;99886.72;;;16.80;100.00
36726;BME280;44936;52.086;5.150;2022-10-16T14:25:47;99773.69;;;16.57;100.00
36726;BME280;44936;52.086;5.150;2022-10-16T14:28:31;99802.59;;;16.63;100.00
36726;BME280;44936;52.086;5.150;2022-10-16T14:31:02;99788.22;;;16.47;100.00
36726;BME280;44936;52.086;5.150;2022-10-16T14:33:48;99800.38;;;16.51;100.00
36726;BME280;44936;52.086;5.150;2022-10-16T14:36:17;99811.16;;;16.46;100.00
36726;BME280;44936;52.086;5.150;2022-10-16T14:39:05;99812.50;;;16.34;100.00
36726;BME280;44936;52.086;5.150;2022-10-16T14:41:42;99776.63;;;16.49;100.00